Terminal Aerodrome Forecast
Issued by NWS Paducah, KY

Home | Current Version | Previous Version | Text Only | Print | Product List | Glossary Off
Versions: 1 2 3 4 5 6 7 8 9 10 11 12 13 14 15 16 17

000
FTUS43 KPAH 260520
TAFPAH
TAF
KPAH 260520Z 2606/2706 36007KT P6SM SCT009 OVC012
     FM261700 02008KT P6SM BKN025
     FM262100 02008KT P6SM SCT035
     FM270000 02003KT P6SM SKC=

USA.gov is the U.S. government's official web portal to all federal, state and local government web resources and services.